createdAt,value
2023-01-06T00:02:47.863Z,9.82
2023-01-06T00:07:51.450Z,15.60
2023-01-06T00:12:53.461Z,10.27
2023-01-06T00:17:55.338Z,11.80
2023-01-06T00:22:57.012Z,11.75
2023-01-06T00:27:58.692Z,8.77
2023-01-06T00:33:00.372Z,13.85
2023-01-06T00:38:02.103Z,12.38
2023-01-06T00:43:04.960Z,9.85
2023-01-06T00:48:07.962Z,11.57
2023-01-06T00:53:09.591Z,9.60
2023-01-06T00:58:11.282Z,9.52
2023-01-06T01:03:12.974Z,8.40
2023-01-06T01:08:14.632Z,10.38
2023-01-06T01:13:16.288Z,8.75
2023-01-06T01:18:18.002Z,11.70
2023-01-06T01:23:19.680Z,8.93
2023-01-06T01:28:21.400Z,10.30
2023-01-06T01:33:23.087Z,7.07
2023-01-06T01:38:27.731Z,4.90
2023-01-06T01:43:53.688Z,7.13
2023-01-06T01:48:58.107Z,5.95
2023-01-06T01:54:02.875Z,8.23
2023-01-06T01:59:12.104Z,10.07
2023-01-06T02:04:15.781Z,6.43
2023-01-06T02:09:39.105Z,11.15
2023-01-06T02:14:40.739Z,10.55
2023-01-06T02:20:17.268Z,9.18
2023-01-06T02:25:57.050Z,7.72
2023-01-06T02:31:13.487Z,8.30
2023-01-06T02:36:53.749Z,4.80
2023-01-06T02:42:10.422Z,4.68
2023-01-06T02:47:33.032Z,10.25
2023-01-06T02:52:53.071Z,9.52
2023-01-06T02:58:01.999Z,6.57
2023-01-06T03:03:12.060Z,7.75
2023-01-06T03:08:20.760Z,9.02
2023-01-06T03:13:39.806Z,8.90
2023-01-06T03:18:44.370Z,7.50
2023-01-06T03:23:46.735Z,3.83
2023-01-06T03:28:48.445Z,4.55
2023-01-06T03:33:59.693Z,2.33
2023-01-06T03:39:15.542Z,1.73
2023-01-06T03:44:29.206Z,2.55
2023-01-06T03:49:54.270Z,6.03
2023-01-06T03:55:21.702Z,4.20
2023-01-06T04:00:29.557Z,4.15
2023-01-06T04:05:31.237Z,3.67
2023-01-06T04:10:33.065Z,4.13
2023-01-06T04:15:34.842Z,2.15
2023-01-06T04:20:36.586Z,4.22
2023-01-06T04:25:38.228Z,2.95
2023-01-06T04:30:39.876Z,2.70
2023-01-06T04:35:43.613Z,2.13
2023-01-06T04:40:45.260Z,3.20
2023-01-06T04:45:47.517Z,1.27
2023-01-06T04:50:49.270Z,4.25
2023-01-06T04:55:50.909Z,1.27
2023-01-06T05:00:59.972Z,1.60
2023-01-06T05:06:10.347Z,2.10
2023-01-06T05:11:17.692Z,3.45
2023-01-06T05:16:25.433Z,2.60
2023-01-06T05:21:32.295Z,4.03
2023-01-06T05:26:34.397Z,1.65
2023-01-06T05:31:36.192Z,1.35
2023-01-06T05:36:38.040Z,2.05
2023-01-06T05:41:39.774Z,3.13
2023-01-06T05:46:41.540Z,1.85
2023-01-06T05:51:43.254Z,2.17
2023-01-06T05:56:44.997Z,1.52
2023-01-06T06:01:46.744Z,2.95
2023-01-06T06:06:48.557Z,2.65
2023-01-06T06:11:51.952Z,2.10
2023-01-06T06:16:53.667Z,1.37
2023-01-06T06:21:55.407Z,3.90
2023-01-06T06:26:57.094Z,3.13
2023-01-06T06:31:58.754Z,2.95
2023-01-06T06:37:00.438Z,8.60
2023-01-06T06:42:02.108Z,2.53
2023-01-06T06:47:03.758Z,5.32
2023-01-06T06:52:05.462Z,2.45
2023-01-06T06:57:07.233Z,1.58
2023-01-06T07:02:09.039Z,2.85
2023-01-06T07:07:10.754Z,2.30
2023-01-06T07:12:12.525Z,6.00
2023-01-06T07:17:14.271Z,2.53
2023-01-06T07:22:16.007Z,3.13
2023-01-06T07:27:17.761Z,3.20
2023-01-06T07:32:19.467Z,3.13
2023-01-06T07:37:21.249Z,1.95
2023-01-06T07:42:23.017Z,2.95
2023-01-06T07:47:24.874Z,4.25
2023-01-06T07:52:26.612Z,1.73
2023-01-06T07:57:29.537Z,3.63
2023-01-06T08:02:31.273Z,1.55
2023-01-06T08:07:32.983Z,2.03
2023-01-06T08:12:34.691Z,2.50
2023-01-06T08:17:36.533Z,2.05
2023-01-06T08:22:38.208Z,1.38
2023-01-06T08:27:39.889Z,0.80
2023-01-06T08:32:41.594Z,3.03
2023-01-06T08:37:43.499Z,2.03
2023-01-06T08:42:45.243Z,2.33
2023-01-06T08:47:47.081Z,1.70
2023-01-06T08:52:48.833Z,3.80
2023-01-06T08:57:51.460Z,1.63
2023-01-06T09:02:54.378Z,1.27
2023-01-06T09:07:55.988Z,2.47
2023-01-06T09:12:57.813Z,2.55
2023-01-06T09:17:59.443Z,1.27
2023-01-06T09:23:01.148Z,0.68
2023-01-06T09:28:02.992Z,0.60
2023-01-06T09:33:04.782Z,0.52
2023-01-06T09:38:06.578Z,0.40
2023-01-06T09:43:44.665Z,1.40
2023-01-06T09:49:03.574Z,0.57
2023-01-06T09:54:21.448Z,1.75
2023-01-06T09:59:44.749Z,0.30
2023-01-06T10:04:46.595Z,0.73
2023-01-06T10:09:57.973Z,0.75
2023-01-06T10:15:20.326Z,2.05
2023-01-06T10:20:27.943Z,0.43
2023-01-06T10:25:43.494Z,0.50
2023-01-06T10:30:50.376Z,0.32
2023-01-06T10:35:54.934Z,0.30
2023-01-06T10:41:20.317Z,0.45
2023-01-06T10:46:22.118Z,0.60
2023-01-06T10:51:39.271Z,0.22
2023-01-06T10:56:46.915Z,0.20
2023-01-06T11:01:54.825Z,0.90
2023-01-06T11:07:02.370Z,0.52
2023-01-06T11:12:10.457Z,1.65
2023-01-06T11:17:16.511Z,0.63
2023-01-06T11:22:32.452Z,1.15
2023-01-06T11:27:34.164Z,1.35
2023-01-06T11:32:35.921Z,1.67
2023-01-06T11:37:43.393Z,0.60
2023-01-06T11:42:50.025Z,0.30
2023-01-06T11:47:51.800Z,0.45
2023-01-06T11:53:02.164Z,1.70
2023-01-06T11:58:19.062Z,0.15
2023-01-06T12:03:35.362Z,0.30
2023-01-06T12:08:45.007Z,0.40
2023-01-06T12:14:10.591Z,0.85
2023-01-06T12:19:28.724Z,0.20
2023-01-06T12:24:33.412Z,0.30
2023-01-06T12:29:36.695Z,0.77
2023-01-06T12:34:46.074Z,0.20
2023-01-06T12:40:20.398Z,0.55
2023-01-06T12:45:49.845Z,4.03
2023-01-06T12:51:08.678Z,0.20
2023-01-06T12:56:31.531Z,0.43
2023-01-06T13:01:40.915Z,0.55
2023-01-06T13:07:10.713Z,0.38
2023-01-06T13:12:12.377Z,0.30
2023-01-06T13:17:23.047Z,1.50
2023-01-06T13:23:05.505Z,0.38
2023-01-06T13:28:35.113Z,0.50
2023-01-06T13:33:50.939Z,0.52
2023-01-06T13:39:07.315Z,0.30
2023-01-06T13:44:38.102Z,0.25
2023-01-06T13:49:41.307Z,1.17
2023-01-06T13:54:42.984Z,1.77
2023-01-06T14:00:05.316Z,0.68
2023-01-06T14:05:30.510Z,1.05
2023-01-06T14:10:42.395Z,0.52
2023-01-06T14:15:57.157Z,0.63
2023-01-06T14:21:05.636Z,0.82
2023-01-06T14:26:08.358Z,0.30
2023-01-06T14:31:31.908Z,1.08
2023-01-06T14:36:34.511Z,1.33
2023-01-06T14:42:08.348Z,0.22
2023-01-06T14:47:30.205Z,0.43
2023-01-06T14:52:39.490Z,0.95
2023-01-06T14:57:41.227Z,0.30
2023-01-06T15:02:49.750Z,0.52
2023-01-06T15:08:10.872Z,0.43
2023-01-06T15:13:22.614Z,0.45
2023-01-06T15:18:24.820Z,0.30
2023-01-06T15:23:26.703Z,0.40
2023-01-06T15:28:34.166Z,0.30
2023-01-06T15:33:39.008Z,0.68
2023-01-06T15:38:41.878Z,1.48
2023-01-06T15:43:46.603Z,0.40
2023-01-06T15:48:49.415Z,0.63
2023-01-06T15:53:57.512Z,0.35
2023-01-06T15:58:59.873Z,0.70
2023-01-06T16:04:04.429Z,1.30
2023-01-06T16:09:26.068Z,0.60
2023-01-06T16:14:40.310Z,0.80
2023-01-06T16:19:51.495Z,0.73
2023-01-06T16:24:53.521Z,1.05
2023-01-06T16:30:13.636Z,0.95
2023-01-06T16:35:18.241Z,0.63
2023-01-06T16:40:22.916Z,1.35
2023-01-06T16:45:47.363Z,0.70
2023-01-06T16:50:54.628Z,1.38
2023-01-06T16:55:57.507Z,1.52
2023-01-06T17:01:08.995Z,1.85
2023-01-06T17:06:19.575Z,0.70
2023-01-06T17:11:27.968Z,2.10
2023-01-06T17:16:39.202Z,2.33
2023-01-06T17:21:41.028Z,1.55
2023-01-06T17:26:55.532Z,1.50
2023-01-06T17:37:15.530Z,9.88
2023-01-06T17:42:17.182Z,2.60
2023-01-06T17:47:19.957Z,2.22
2023-01-06T17:52:32.010Z,1.85
2023-01-06T17:57:34.057Z,2.67
2023-01-06T18:02:50.326Z,1.80
2023-01-06T18:08:07.033Z,2.97
2023-01-06T18:13:20.356Z,1.67
2023-01-06T18:18:24.474Z,1.58
2023-01-06T18:23:28.516Z,4.47
2023-01-06T18:28:30.441Z,2.70
2023-01-06T18:33:34.798Z,2.97
2023-01-06T18:38:36.489Z,1.48
2023-01-06T18:43:39.846Z,1.35
2023-01-06T18:48:42.527Z,0.82
2023-01-06T18:53:44.734Z,3.75
2023-01-06T18:58:52.749Z,1.30
2023-01-06T19:04:04.904Z,1.08
2023-01-06T19:09:27.791Z,1.40
2023-01-06T19:14:33.867Z,2.42
2023-01-06T19:19:39.606Z,2.00
2023-01-06T19:24:46.709Z,1.00
2023-01-06T19:29:48.447Z,1.48
2023-01-06T19:34:50.172Z,2.78
2023-01-06T19:39:57.646Z,0.77
2023-01-06T19:45:09.328Z,1.42
2023-01-06T19:50:21.700Z,3.33
2023-01-06T19:55:28.891Z,3.33
2023-01-06T20:00:51.163Z,2.78
2023-01-06T20:05:53.106Z,1.70
2023-01-06T20:10:55.147Z,1.70
2023-01-06T20:15:56.873Z,2.13
2023-01-06T20:20:58.747Z,1.23
2023-01-06T20:26:00.498Z,3.63
2023-01-06T20:31:02.140Z,1.83
2023-01-06T20:36:03.895Z,2.50
2023-01-06T20:41:06.691Z,1.88
2023-01-06T20:46:08.563Z,1.50
2023-01-06T20:51:10.353Z,1.63
2023-01-06T20:56:12.043Z,1.15
2023-01-06T21:01:13.881Z,1.42
2023-01-06T21:06:16.074Z,1.00
2023-01-06T21:11:17.766Z,1.85
2023-01-06T21:16:21.262Z,1.55
2023-01-06T21:21:23.278Z,0.80
2023-01-06T21:26:24.907Z,4.03
2023-01-06T21:31:26.657Z,1.45
2023-01-06T21:36:28.394Z,1.35
2023-01-06T21:41:48.431Z,2.30
2023-01-06T21:46:50.336Z,1.00
2023-01-06T21:51:53.948Z,0.80
2023-01-06T21:56:56.091Z,0.90
2023-01-06T22:01:58.051Z,1.05
2023-01-06T22:07:03.001Z,0.82
2023-01-06T22:12:06.398Z,1.15
2023-01-06T22:17:08.298Z,2.13
2023-01-06T22:22:10.072Z,3.55
2023-01-06T22:27:11.767Z,3.13
2023-01-06T22:32:13.401Z,1.90
2023-01-06T22:37:15.069Z,1.85
2023-01-06T22:42:16.741Z,2.28
2023-01-06T22:47:18.507Z,4.20
2023-01-06T22:52:20.118Z,3.40
2023-01-06T22:57:21.802Z,3.17
2023-01-06T23:02:23.595Z,2.83
2023-01-06T23:07:25.400Z,3.00
2023-01-06T23:12:27.075Z,2.67
2023-01-06T23:17:28.721Z,2.75
2023-01-06T23:22:30.404Z,1.40
2023-01-06T23:27:32.078Z,1.70
2023-01-06T23:32:33.760Z,2.08
2023-01-06T23:37:35.429Z,2.83
2023-01-06T23:42:40.746Z,1.67
2023-01-06T23:47:50.363Z,1.60
2023-01-06T23:52:54.650Z,1.75
2023-01-06T23:57:56.392Z,1.50
